Time;durP1;ratioP1;P1;durP2;ratioP2;P2;SDS_P1;SDS_P2;PMS_P1;PMS_P2;Temp;Humidity;BMP_temperature;BMP_pressure;BME280_temperature;BME280_humidity;BME280_pressure;Samples;Min_cycle;Max_cycle;Signal;HPM_P1;HPM_P2
2023/10/29 00:02:16;;;;;;;12.82;4.70;;;16.50;99.90;;;;;;4954520;29;20032;-85
2023/10/29 00:04:43;;;;;;;11.55;4.63;;;16.40;99.90;;;;;;4938920;29;20043;-86
2023/10/29 00:07:09;;;;;;;7.95;4.50;;;16.40;99.90;;;;;;4935170;29;20036;-86
2023/10/29 00:09:35;;;;;;;9.30;5.28;;;16.40;99.90;;;;;;4903770;29;20032;-86
2023/10/29 00:12:02;;;;;;;8.98;3.95;;;16.40;99.90;;;;;;4904361;29;20386;-86
2023/10/29 00:14:28;;;;;;;13.25;4.25;;;16.40;99.90;;;;;;4903965;29;20454;-85
2023/10/29 00:16:55;;;;;;;8.80;4.40;;;16.40;99.90;;;;;;4904477;29;20027;-87
2023/10/29 00:19:21;;;;;;;8.95;3.95;;;16.30;99.90;;;;;;4938755;29;20060;-85
2023/10/29 00:21:47;;;;;;;4.35;3.55;;;16.30;99.90;;;;;;4911375;29;20036;-87
2023/10/29 00:24:13;;;;;;;9.90;3.85;;;16.30;99.90;;;;;;4940776;29;20036;-88
2023/10/29 00:26:40;;;;;;;8.30;4.00;;;16.30;99.90;;;;;;4909423;29;20059;-86
2023/10/29 00:29:07;;;;;;;7.22;4.00;;;16.30;99.90;;;;;;4928727;29;20031;-87
2023/10/29 00:31:35;;;;;;;6.75;4.10;;;16.20;99.90;;;;;;4907055;29;20034;-86
2023/10/29 00:34:03;;;;;;;9.50;4.57;;;16.20;99.90;;;;;;4906988;29;20051;-86
2023/10/29 00:36:30;;;;;;;11.75;4.32;;;16.10;99.90;;;;;;4905660;29;20048;-87
2023/10/29 00:38:57;;;;;;;12.35;4.75;;;16.10;99.90;;;;;;4922712;29;20150;-87
2023/10/29 00:41:28;;;;;;;10.88;5.13;;;16.00;99.90;;;;;;4922346;29;20028;-87
2023/10/29 00:43:55;;;;;;;15.30;4.97;;;16.00;99.90;;;;;;4906703;29;20039;-87
2023/10/29 00:46:25;;;;;;;14.93;4.57;;;16.00;99.90;;;;;;4922464;29;20032;-87
2023/10/29 00:48:59;;;;;;;12.85;5.18;;;16.00;99.90;;;;;;4922590;29;20024;-88
2023/10/29 00:51:26;;;;;;;13.05;5.18;;;15.90;99.90;;;;;;4938371;29;20490;-86
2023/10/29 00:53:52;;;;;;;9.63;4.90;;;15.90;99.90;;;;;;4906596;29;20038;-88
2023/10/29 00:56:19;;;;;;;13.88;5.00;;;15.90;99.90;;;;;;4938215;29;20127;-88
2023/10/29 00:58:47;;;;;;;14.65;4.80;;;15.90;99.90;;;;;;4921930;29;20446;-87
2023/10/29 01:01:13;;;;;;;11.00;4.63;;;15.90;99.90;;;;;;4921915;29;20039;-87
2023/10/29 01:03:41;;;;;;;17.02;5.20;;;15.90;99.90;;;;;;4921825;29;20059;-86
2023/10/29 01:06:09;;;;;;;12.10;4.70;;;15.80;99.90;;;;;;4921984;29;20032;-86
2023/10/29 01:08:36;;;;;;;9.57;4.57;;;15.80;99.90;;;;;;4921788;29;20024;-87
2023/10/29 01:11:08;;;;;;;11.55;4.65;;;15.70;99.90;;;;;;4938080;29;20035;-87
2023/10/29 01:13:36;;;;;;;;;;;15.70;99.90;;;;;;4922381;29;20370;-88
2023/10/29 01:16:06;;;;;;;12.27;4.45;;;15.70;99.90;;;;;;4921915;29;19906;-86
2023/10/29 01:18:33;;;;;;;12.45;4.50;;;15.70;99.90;;;;;;4921890;29;20032;-87
2023/10/29 01:20:59;;;;;;;11.90;4.18;;;15.70;99.90;;;;;;4937745;29;20028;-87
2023/10/29 01:23:28;;;;;;;11.52;4.55;;;15.70;99.90;;;;;;4937585;29;20031;-87
2023/10/29 01:25:59;;;;;;;11.98;4.68;;;15.70;99.90;;;;;;4930126;29;20063;-87
2023/10/29 01:28:26;;;;;;;16.60;4.53;;;15.70;99.90;;;;;;4921584;29;20031;-87
2023/10/29 01:30:53;;;;;;;7.50;4.13;;;15.70;99.90;;;;;;4921646;29;20031;-88
2023/10/29 01:33:20;;;;;;;14.85;4.85;;;15.70;99.90;;;;;;4937757;29;20032;-87
2023/10/29 01:35:46;;;;;;;8.95;4.35;;;15.80;99.90;;;;;;4921894;29;20407;-88
2023/10/29 01:38:13;;;;;;;14.13;4.20;;;15.80;99.90;;;;;;4921493;29;20032;-86
2023/10/29 01:40:39;;;;;;;12.15;4.30;;;15.80;99.90;;;;;;4921494;29;20569;-86
2023/10/29 01:43:05;;;;;;;8.73;4.35;;;15.80;99.90;;;;;;4921532;29;20032;-87
2023/10/29 01:45:32;;;;;;;10.32;4.75;;;15.80;99.90;;;;;;4921537;29;20452;-87
2023/10/29 01:47:58;;;;;;;12.70;5.07;;;15.80;99.90;;;;;;4921065;29;20032;-88
2023/10/29 01:50:25;;;;;;;13.07;4.47;;;15.80;99.90;;;;;;4920865;29;20075;-88
2023/10/29 01:52:53;;;;;;;7.68;4.32;;;15.80;99.90;;;;;;4921352;29;20043;-88
2023/10/29 01:55:24;;;;;;;12.50;4.72;;;15.90;99.90;;;;;;4921314;29;20071;-87
2023/10/29 01:57:51;;;;;;;10.10;4.30;;;15.90;99.90;;;;;;4921067;29;20031;-87
2023/10/29 02:00:19;;;;;;;6.85;4.15;;;16.00;99.90;;;;;;4921155;29;20034;-88
2023/10/29 02:02:47;;;;;;;13.25;4.40;;;16.00;99.90;;;;;;4936942;29;20032;-87
2023/10/29 02:05:14;;;;;;;13.48;4.30;;;16.00;99.90;;;;;;4921217;29;20031;-86
2023/10/29 02:07:41;;;;;;;11.80;4.10;;;16.00;99.90;;;;;;4921081;29;20500;-86
2023/10/29 02:10:07;;;;;;;8.30;4.10;;;16.00;99.90;;;;;;4920918;29;20032;-87
2023/10/29 02:12:34;;;;;;;11.70;4.40;;;15.90;99.90;;;;;;4936738;29;20115;-88
2023/10/29 02:15:00;;;;;;;11.95;4.22;;;15.90;99.90;;;;;;4920737;29;20031;-86
2023/10/29 02:17:27;;;;;;;9.50;4.63;;;15.90;99.90;;;;;;4917306;29;20028;-87
2023/10/29 02:19:57;;;;;;;10.57;3.85;;;16.00;99.90;;;;;;4917400;29;20043;-87
2023/10/29 02:22:27;;;;;;;14.88;5.10;;;16.00;99.90;;;;;;4920163;29;20489;-88
2023/10/29 02:24:54;;;;;;;7.82;3.95;;;15.90;99.90;;;;;;4920306;29;20071;-86
2023/10/29 02:27:25;;;;;;;11.75;4.18;;;15.90;99.90;;;;;;4920571;29;20074;-87
2023/10/29 02:29:54;;;;;;;17.80;5.03;;;15.80;99.90;;;;;;4904753;29;20038;-87
2023/10/29 02:32:20;;;;;;;7.13;3.90;;;15.80;99.90;;;;;;4904626;29;20042;-87
2023/10/29 02:34:47;;;;;;;11.70;4.60;;;15.80;99.90;;;;;;4920547;29;20027;-87
2023/10/29 02:37:21;;;;;;;15.68;4.13;;;15.80;99.90;;;;;;4904795;29;20390;-87
2023/10/29 02:39:47;;;;;;;10.20;4.28;;;15.80;99.90;;;;;;4920222;29;20035;-87
2023/10/29 02:42:16;;;;;;;8.02;3.90;;;15.80;99.90;;;;;;4904703;29;20031;-88
2023/10/29 02:44:46;;;;;;;8.23;3.92;;;15.80;99.90;;;;;;4904377;29;20043;-87
2023/10/29 02:47:16;;;;;;;12.77;4.70;;;15.80;99.90;;;;;;4937430;29;20027;-87
2023/10/29 02:49:43;;;;;;;15.85;4.32;;;15.90;99.90;;;;;;4936002;29;20031;-87
2023/10/29 02:52:10;;;;;;;11.75;4.05;;;15.90;99.90;;;;;;4904778;29;20032;-86
2023/10/29 02:54:37;;;;;;;8.45;3.50;;;16.00;99.90;;;;;;4920364;29;20031;-86
2023/10/29 02:57:04;;;;;;;12.23;3.95;;;15.90;99.90;;;;;;4917023;29;20071;-88
2023/10/29 02:59:32;;;;;;;8.00;3.97;;;15.80;99.90;;;;;;4900911;29;20036;-87
2023/10/29 03:01:58;;;;;;;6.85;4.07;;;15.80;99.90;;;;;;4901398;29;20024;-87
2023/10/29 03:04:25;;;;;;;9.50;4.65;;;15.70;99.90;;;;;;4901022;29;20409;-88
2023/10/29 03:06:52;;;;;;;10.40;4.53;;;15.80;99.90;;;;;;4917363;29;20079;-87
2023/10/29 03:09:19;;;;;;;12.38;4.20;;;15.80;99.90;;;;;;4916874;29;20062;-87
2023/10/29 03:11:46;;;;;;;14.25;4.55;;;15.70;99.90;;;;;;4885682;29;20020;-87
2023/10/29 03:14:13;;;;;;;7.10;4.03;;;15.70;99.90;;;;;;4885120;29;20040;-87
2023/10/29 03:16:40;;;;;;;12.50;4.30;;;15.70;99.90;;;;;;4923490;29;20036;-87
2023/10/29 03:19:06;;;;;;;9.98;4.43;;;15.70;99.90;;;;;;4916653;29;20032;-88
2023/10/29 03:21:34;;;;;;;14.27;4.00;;;15.70;99.90;;;;;;4900969;29;20032;-87
2023/10/29 03:24:00;;;;;;;13.13;4.15;;;15.80;99.90;;;;;;4916747;29;20508;-86
2023/10/29 03:26:27;;;;;;;16.20;4.50;;;15.80;99.90;;;;;;4932330;29;20493;-88
2023/10/29 03:28:54;;;;;;;7.75;4.05;;;15.90;99.90;;;;;;4919949;29;20144;-87
2023/10/29 03:31:21;;;;;;;9.98;4.38;;;15.90;99.90;;;;;;4919789;29;20043;-87
2023/10/29 03:33:47;;;;;;;12.07;4.43;;;15.90;99.90;;;;;;4935297;29;20032;-87
2023/10/29 03:36:14;;;;;;;10.82;4.20;;;15.90;99.90;;;;;;4935359;29;20448;-87
2023/10/29 03:38:41;;;;;;;16.80;4.85;;;15.90;99.90;;;;;;4919589;29;20038;-87
2023/10/29 03:41:17;;;;;;;16.92;4.35;;;16.00;99.90;;;;;;4935836;29;20023;-87
2023/10/29 03:43:44;;;;;;;15.57;4.30;;;15.90;99.90;;;;;;4904056;29;20039;-87
2023/10/29 03:46:11;;;;;;;9.18;4.22;;;15.90;99.90;;;;;;4935481;29;20027;-86
2023/10/29 03:48:44;;;;;;;10.55;4.05;;;15.90;99.90;;;;;;4935809;29;20067;-87
2023/10/29 03:51:20;;;;;;;10.25;4.32;;;16.00;99.90;;;;;;4937010;29;20036;-86
2023/10/29 03:53:52;;;;;;;13.35;4.47;;;16.00;99.90;;;;;;4935351;29;20031;-87
2023/10/29 03:56:19;;;;;;;12.68;4.63;;;16.00;99.90;;;;;;4951333;29;20209;-88
2023/10/29 03:58:46;;;;;;;16.77;4.55;;;15.90;99.90;;;;;;4935508;29;20024;-87
2023/10/29 04:01:34;;;;;;;9.02;4.10;;;15.80;99.90;;;;;;4935497;29;20032;-88
2023/10/29 04:04:03;;;;;;;11.32;4.20;;;15.70;99.90;;;;;;4934878;29;20065;-87
2023/10/29 04:06:31;;;;;;;9.50;4.10;;;15.60;99.90;;;;;;4935427;29;20051;-88
2023/10/29 04:08:58;;;;;;;12.82;4.90;;;15.60;99.90;;;;;;4935390;29;20027;-87
2023/10/29 04:11:25;;;;;;;11.65;4.55;;;15.50;99.90;;;;;;4921971;29;20036;-88
2023/10/29 04:13:54;;;;;;;11.30;4.10;;;15.40;99.90;;;;;;4938585;29;20039;-88
2023/10/29 04:16:24;;;;;;;7.97;4.28;;;15.40;99.90;;;;;;4938859;29;20179;-87
2023/10/29 04:18:51;;;;;;;11.88;4.68;;;15.40;99.90;;;;;;4938514;29;20039;-86
2023/10/29 04:21:17;;;;;;;9.82;4.28;;;15.40;99.90;;;;;;4954737;29;20024;-88
2023/10/29 04:23:44;;;;;;;15.23;5.28;;;15.40;99.90;;;;;;4954480;29;20043;-86
2023/10/29 04:26:11;;;;;;;10.98;4.40;;;15.50;99.90;;;;;;4939902;29;20052;-87
2023/10/29 04:28:37;;;;;;;8.32;4.32;;;15.50;99.90;;;;;;4919777;29;20108;-86
2023/10/29 04:31:04;;;;;;;8.30;4.00;;;15.60;99.90;;;;;;4903735;29;20040;-87
2023/10/29 04:33:31;;;;;;;18.77;4.50;;;15.60;99.90;;;;;;4904074;29;20028;-87
2023/10/29 04:35:57;;;;;;;14.07;4.78;;;15.50;99.90;;;;;;4903736;29;20024;-86
2023/10/29 04:38:23;;;;;;;12.80;4.18;;;15.50;99.90;;;;;;4903463;29;20052;-85
2023/10/29 04:40:51;;;;;;;19.02;4.78;;;15.40;99.90;;;;;;4902910;29;20028;-86
2023/10/29 04:43:17;;;;;;;9.68;4.05;;;15.40;99.90;;;;;;4903426;29;20036;-87
2023/10/29 04:45:43;;;;;;;6.03;3.70;;;15.40;99.90;;;;;;4920572;29;20063;-86
2023/10/29 04:48:10;;;;;;;13.48;4.07;;;15.40;99.90;;;;;;4922153;29;20059;-86
2023/10/29 04:50:37;;;;;;;9.27;3.92;;;15.40;99.90;;;;;;4922039;29;20441;-86
2023/10/29 04:53:03;;;;;;;12.43;4.05;;;15.40;99.90;;;;;;4906206;29;20122;-86
2023/10/29 04:55:30;;;;;;;9.63;4.30;;;15.50;99.90;;;;;;4922152;29;20024;-85
2023/10/29 04:57:57;;;;;;;7.68;4.28;;;15.50;99.90;;;;;;4919070;29;20482;-87
2023/10/29 05:00:24;;;;;;;11.73;4.22;;;15.40;99.90;;;;;;4902811;29;20024;-85
2023/10/29 05:02:50;;;;;;;15.18;4.95;;;15.40;99.90;;;;;;4902702;29;20115;-85
2023/10/29 05:05:17;;;;;;;5.70;3.70;;;15.40;99.90;;;;;;4918564;29;20474;-86
2023/10/29 05:07:45;;;;;;;10.57;4.00;;;15.40;99.90;;;;;;4935233;29;20031;-86
2023/10/29 05:10:13;;;;;;;7.55;3.72;;;15.30;99.90;;;;;;4906679;29;20106;-85
2023/10/29 05:12:40;;;;;;;10.45;4.03;;;15.30;99.90;;;;;;4907485;29;20409;-85
2023/10/29 05:15:08;;;;;;;9.68;3.65;;;15.40;99.90;;;;;;4922029;29;20038;-86
2023/10/29 05:17:35;;;;;;;10.02;3.90;;;15.40;99.90;;;;;;4906004;29;20036;-85
2023/10/29 05:20:08;;;;;;;10.98;4.53;;;15.40;99.90;;;;;;4918412;29;20099;-85
2023/10/29 05:22:36;;;;;;;13.10;4.07;;;15.40;99.90;;;;;;4902071;29;20119;-85
2023/10/29 05:25:04;;;;;;;8.93;3.95;;;15.40;99.90;;;;;;4922804;29;20047;-86
2023/10/29 05:27:31;;;;;;;11.02;4.03;;;15.50;99.90;;;;;;4938312;29;20034;-86
2023/10/29 05:30:01;;;;;;;10.88;3.70;;;15.60;99.90;;;;;;4921419;29;20028;-86
2023/10/29 05:32:28;;;;;;;11.57;3.88;;;15.70;99.90;;;;;;4921247;29;20106;-86
2023/10/29 05:34:56;;;;;;;12.85;4.10;;;15.70;99.90;;;;;;4921158;29;20119;-85
2023/10/29 05:37:23;;;;;;;7.63;3.88;;;15.70;99.90;;;;;;4921203;29;20552;-86
2023/10/29 05:39:51;;;;;;;8.07;3.65;;;15.80;99.90;;;;;;4921115;29;20027;-87
2023/10/29 05:42:21;;;;;;;10.48;3.58;;;15.80;99.90;;;;;;4920784;29;20027;-86
2023/10/29 05:44:50;;;;;;;8.98;3.72;;;15.80;99.90;;;;;;4938042;29;20043;-85
2023/10/29 05:47:17;;;;;;;11.40;4.28;;;15.80;99.90;;;;;;4936727;29;20028;-85
2023/10/29 05:49:43;;;;;;;7.05;4.32;;;16.00;99.90;;;;;;4921194;29;20028;-85
2023/10/29 05:52:10;;;;;;;9.52;4.20;;;16.10;99.90;;;;;;4920957;29;20171;-86
2023/10/29 05:54:37;;;;;;;8.35;4.40;;;16.20;99.90;;;;;;4920997;29;20028;-85
2023/10/29 05:57:03;;;;;;;12.38;4.90;;;16.30;99.90;;;;;;4936128;29;20118;-86
2023/10/29 05:59:31;;;;;;;10.40;4.80;;;16.40;99.90;;;;;;4920862;29;20050;-86
2023/10/29 06:01:59;;;;;;;13.25;4.88;;;16.40;99.90;;;;;;4920890;29;20393;-85
2023/10/29 06:04:26;;;;;;;9.93;5.07;;;16.60;99.90;;;;;;4920290;29;20032;-86
2023/10/29 06:06:52;;;;;;;8.52;4.88;;;16.70;99.90;;;;;;4919937;29;20031;-86
2023/10/29 06:09:18;;;;;;;12.02;4.97;;;16.90;99.90;;;;;;4920549;29;20027;-85
2023/10/29 06:11:48;;;;;;;8.77;5.15;;;17.10;99.90;;;;;;4919896;29;20106;-85
2023/10/29 06:14:15;;;;;;;10.23;5.40;;;17.60;99.90;;;;;;4920786;29;20036;-85
2023/10/29 06:16:46;;;;;;;9.43;6.43;;;17.90;99.90;;;;;;4923237;29;20394;-86
2023/10/29 06:19:13;;;;;;;10.23;8.02;;;18.20;99.90;;;;;;4919824;29;20032;-85
2023/10/29 06:21:39;;;;;;;13.25;10.38;;;18.50;99.90;;;;;;4919806;29;20485;-86
2023/10/29 06:24:07;;;;;;;16.25;13.57;;;19.20;99.90;;;;;;4935528;29;20401;-84
2023/10/29 06:26:33;;;;;;;19.27;15.50;;;19.50;99.90;;;;;;4919561;29;20048;-83
2023/10/29 06:29:00;;;;;;;19.40;17.73;;;19.50;99.90;;;;;;4935588;29;20036;-86
2023/10/29 06:31:29;;;;;;;28.20;19.60;;;19.70;99.90;;;;;;4936512;29;20019;-86
2023/10/29 06:34:01;;;;;;;23.52;21.23;;;20.20;99.90;;;;;;4947152;29;20159;-84
2023/10/29 06:36:29;;;;;;;26.63;23.17;;;20.30;99.90;;;;;;4946828;29;20038;-84
2023/10/29 06:39:02;;;;;;;27.90;25.38;;;20.50;99.90;;;;;;4919471;29;20051;-84
2023/10/29 06:41:28;;;;;;;27.75;25.30;;;20.70;99.90;;;;;;4919232;29;20138;-83
2023/10/29 06:43:55;;;;;;;25.90;23.02;;;20.90;99.90;;;;;;4934882;29;20034;-82
2023/10/29 06:46:21;;;;;;;25.95;23.45;;;21.20;99.90;;;;;;4936201;29;20067;-85
2023/10/29 06:48:48;;;;;;;26.45;23.98;;;21.40;99.90;;;;;;4934911;29;20029;-83
2023/10/29 06:51:15;;;;;;;27.15;24.45;;;21.50;99.90;;;;;;4918956;29;20040;-86
2023/10/29 06:53:45;;;;;;;27.98;24.10;;;21.50;99.90;;;;;;4918996;29;20032;-84
2023/10/29 06:56:12;;;;;;;26.75;24.20;;;21.70;99.90;;;;;;4919001;29;20027;-84
2023/10/29 06:58:39;;;;;;;26.15;23.73;;;22.00;99.90;;;;;;4934859;29;20023;-84
2023/10/29 07:01:07;;;;;;;26.23;23.67;;;22.60;99.90;;;;;;4934743;29;20433;-84
2023/10/29 07:03:36;;;;;;;26.05;23.30;;;23.00;99.90;;;;;;4936027;29;20020;-84
2023/10/29 07:06:09;;;;;;;26.25;23.88;;;23.30;99.90;;;;;;4918985;29;20040;-84
2023/10/29 07:08:38;;;;;;;26.92;24.42;;;23.50;99.90;;;;;;4919042;29;20023;-79
2023/10/29 07:11:08;;;;;;;26.60;24.42;;;23.60;99.90;;;;;;4919032;29;20058;-85
2023/10/29 07:13:34;;;;;;;27.02;24.80;;;23.90;99.90;;;;;;4934670;29;20051;-83
2023/10/29 07:16:02;;;;;;;27.80;25.30;;;23.90;99.90;;;;;;4934606;29;20020;-84
2023/10/29 07:18:29;;;;;;;27.17;24.80;;;23.50;99.90;;;;;;4934314;29;20055;-83
2023/10/29 07:20:56;;;;;;;27.65;25.30;;;23.90;99.90;;;;;;4935827;29;20024;-83
2023/10/29 07:23:23;;;;;;;27.77;25.40;;;23.90;99.90;;;;;;4934801;29;20057;-82
2023/10/29 07:25:50;;;;;;;29.00;26.33;;;24.00;99.90;;;;;;4935498;29;20058;-80
2023/10/29 07:28:17;;;;;;;29.33;26.75;;;23.70;99.90;;;;;;4918540;29;20024;-82
2023/10/29 07:30:44;;;;;;;28.20;25.63;;;23.60;99.90;;;;;;4915705;29;20032;-85
2023/10/29 07:33:11;;;;;;;28.67;25.90;;;24.00;99.90;;;;;;4916179;29;20036;-86
2023/10/29 07:35:38;;;;;;;27.27;24.92;;;24.30;99.90;;;;;;4916033;29;20386;-81
2023/10/29 07:38:08;;;;;;;27.27;24.55;;;24.20;99.90;;;;;;4915328;29;20028;-82
2023/10/29 07:40:37;;;;;;;27.27;25.17;;;24.00;99.90;;;;;;4915907;29;20032;-81
2023/10/29 07:43:04;;;;;;;27.48;25.00;;;23.80;99.90;;;;;;4917414;29;20035;-87
2023/10/29 07:45:34;;;;;;;27.88;25.55;;;23.70;99.90;;;;;;4917489;29;20047;-83
2023/10/29 07:48:03;;;;;;;27.48;25.48;;;23.40;99.90;;;;;;4923024;29;20032;-88
2023/10/29 07:50:30;;;;;;;28.17;26.08;;;23.40;99.90;;;;;;4919792;29;20032;-84
2023/10/29 07:52:59;;;;;;;28.70;26.40;;;23.50;99.90;;;;;;4903776;29;20113;-84
2023/10/29 07:55:26;;;;;;;29.08;26.65;;;23.50;99.90;;;;;;4918945;29;20107;-84
2023/10/29 07:57:52;;;;;;;30.73;27.70;;;23.70;99.90;;;;;;4903606;29;20490;-86
2023/10/29 08:00:19;;;;;;;28.17;26.17;;;24.00;99.90;;;;;;4920318;29;20043;-86
2023/10/29 08:02:47;;;;;;;29.05;26.45;;;24.00;99.90;;;;;;4920084;29;20028;-84
2023/10/29 08:05:14;;;;;;;29.52;27.25;;;24.10;99.90;;;;;;4919441;29;20048;-85
2023/10/29 08:07:41;;;;;;;27.70;25.70;;;24.00;99.90;;;;;;4914162;29;20482;-83
2023/10/29 08:10:08;;;;;;;28.83;26.30;;;24.00;99.90;;;;;;4920467;29;20063;-83
2023/10/29 08:12:38;;;;;;;28.30;25.90;;;24.10;99.90;;;;;;4919443;29;20075;-89
2023/10/29 08:15:04;;;;;;;27.45;25.55;;;24.30;99.90;;;;;;4903225;29;20300;-89
2023/10/29 08:17:33;;;;;;;28.25;25.75;;;24.50;99.90;;;;;;4919016;29;20028;-85
2023/10/29 08:19:59;;;;;;;27.35;25.15;;;24.50;99.90;;;;;;4918881;29;20028;-84
2023/10/29 08:22:26;;;;;;;27.58;25.48;;;24.30;99.90;;;;;;4919298;29;20021;-86
2023/10/29 08:24:59;;;;;;;27.77;25.60;;;24.00;99.90;;;;;;4927471;29;20067;-93
2023/10/29 08:27:26;;;;;;;27.67;25.33;;;23.90;99.90;;;;;;4928078;29;20027;-86
2023/10/29 08:29:53;;;;;;;26.58;24.67;;;24.10;99.90;;;;;;4943171;29;20077;-86
2023/10/29 08:32:20;;;;;;;26.95;24.80;;;24.10;99.90;;;;;;4957231;29;20085;-86
2023/10/29 08:34:46;;;;;;;27.73;25.23;;;24.00;99.90;;;;;;4941021;29;20114;-85
2023/10/29 08:37:17;;;;;;;26.80;24.88;;;24.00;99.90;;;;;;4960911;28;20031;-85
2023/10/29 08:39:43;;;;;;;26.65;24.75;;;24.00;99.90;;;;;;4960613;28;20046;-85
2023/10/29 08:42:10;;;;;;;27.25;25.05;;;24.10;99.90;;;;;;4944869;28;20408;-87
2023/10/29 08:44:37;;;;;;;26.85;24.73;;;24.20;99.90;;;;;;4944484;28;20039;-84
2023/10/29 08:47:04;;;;;;;25.52;23.63;;;24.30;99.90;;;;;;4951991;29;20024;-87
2023/10/29 08:49:30;;;;;;;26.80;24.73;;;24.30;99.90;;;;;;4925874;29;20496;-88
2023/10/29 08:52:00;;;;;;;26.60;24.40;;;24.10;99.90;;;;;;4925829;29;20106;-87
2023/10/29 08:54:26;;;;;;;26.40;24.50;;;23.90;99.90;;;;;;4925926;29;20031;-88
2023/10/29 08:56:53;;;;;;;26.60;24.73;;;23.90;99.90;;;;;;4924648;29;20031;-89
2023/10/29 08:59:22;;;;;;;26.80;24.58;;;23.90;99.90;;;;;;4925151;29;20031;-88
2023/10/29 09:01:49;;;;;;;26.98;24.88;;;24.00;99.90;;;;;;4925642;29;20035;-88
2023/10/29 09:04:15;;;;;;;27.08;25.05;;;24.10;99.90;;;;;;4925544;29;20031;-87
2023/10/29 09:06:43;;;;;;;26.40;24.58;;;24.00;99.90;;;;;;4925422;29;20046;-90
2023/10/29 09:09:09;;;;;;;27.35;25.23;;;24.20;99.90;;;;;;4925984;29;20023;-87
2023/10/29 09:11:36;;;;;;;27.13;25.17;;;24.30;99.90;;;;;;4925543;29;20125;-87
2023/10/29 09:14:03;;;;;;;27.27;24.95;;;24.30;99.90;;;;;;4958407;28;20078;-87
2023/10/29 09:16:30;;;;;;;28.75;26.45;;;24.50;99.90;;;;;;4928816;28;20038;-86
2023/10/29 09:18:56;;;;;;;28.20;26.00;;;24.70;99.90;;;;;;4944592;28;20022;-88
2023/10/29 09:21:22;;;;;;;28.10;26.05;;;24.70;99.90;;;;;;4944775;28;20062;-88
2023/10/29 09:23:49;;;;;;;28.70;26.50;;;24.80;99.90;;;;;;4944529;28;20023;-88
2023/10/29 09:26:16;;;;;;;28.92;26.58;;;24.80;99.90;;;;;;4927004;29;20054;-87
2023/10/29 09:28:42;;;;;;;27.98;25.95;;;24.90;99.90;;;;;;4906227;29;20098;-87
2023/10/29 09:31:16;;;;;;;28.60;26.30;;;25.00;99.90;;;;;;4921796;29;20490;-90
2023/10/29 09:33:48;;;;;;;28.48;26.20;;;25.00;99.90;;;;;;4921755;29;20031;-88
2023/10/29 09:36:16;;;;;;;29.00;26.65;;;24.70;99.90;;;;;;4920701;29;20054;-88
2023/10/29 09:38:42;;;;;;;28.13;26.02;;;24.70;99.90;;;;;;4902889;29;20027;-88
2023/10/29 09:41:09;;;;;;;27.98;25.63;;;24.40;99.90;;;;;;4902405;29;20486;-88
2023/10/29 09:43:43;;;;;;;28.20;26.23;;;24.40;99.90;;;;;;4902487;29;20414;-88
2023/10/29 09:46:11;;;;;;;28.10;26.05;;;24.30;99.90;;;;;;4902780;29;20418;-88
2023/10/29 09:48:38;;;;;;;27.38;25.15;;;24.30;99.90;;;;;;4902648;29;20043;-90
2023/10/29 09:51:06;;;;;;;27.42;25.38;;;24.30;99.90;;;;;;4903010;29;20035;-87
2023/10/29 09:53:38;;;;;;;28.17;25.80;;;24.30;99.90;;;;;;4902596;29;20032;-78
2023/10/29 09:56:12;;;;;;;28.17;26.17;;;24.50;99.90;;;;;;4919334;29;20040;-89
2023/10/29 09:58:39;;;;;;;28.50;26.35;;;24.80;99.90;;;;;;4887032;29;20079;-92
2023/10/29 10:01:06;;;;;;;27.77;25.67;;;25.00;99.90;;;;;;4886835;29;20506;-89
2023/10/29 10:03:36;;;;;;;28.42;26.15;;;24.90;99.90;;;;;;4918007;29;20032;-89
2023/10/29 10:06:03;;;;;;;28.55;26.45;;;25.00;99.90;;;;;;4888375;29;20095;-89
2023/10/29 10:08:32;;;;;;;29.55;27.17;;;25.00;99.90;;;;;;4927010;29;20026;-91
2023/10/29 10:10:59;;;;;;;28.75;26.73;;;25.00;99.90;;;;;;4910540;29;20034;-92
2023/10/29 10:13:38;;;;;;;28.95;26.92;;;25.00;99.90;;;;;;4907831;29;20422;-90
2023/10/29 10:16:13;;;;;;;30.45;28.35;;;25.10;99.90;;;;;;4921473;29;20028;-92
2023/10/29 10:18:59;;;;;;;29.38;27.33;;;25.30;99.90;;;;;;4921866;29;20114;-91
2023/10/29 10:21:42;;;;;;;30.13;27.92;;;25.20;99.90;;;;;;4921343;29;20070;-89
2023/10/29 10:24:08;;;;;;;29.98;27.67;;;25.20;99.90;;;;;;4905632;29;20043;-91
2023/10/29 10:26:36;;;;;;;29.13;27.13;;;25.20;99.90;;;;;;4937422;29;20047;-91
2023/10/29 10:29:08;;;;;;;30.00;27.80;;;25.20;99.90;;;;;;4940305;29;20036;-92
2023/10/29 10:31:35;;;;;;;29.42;27.23;;;25.20;99.90;;;;;;4940256;29;20063;-92
2023/10/29 10:34:18;;;;;;;29.95;27.73;;;25.40;99.90;;;;;;4941409;29;20030;-93
2023/10/29 10:36:49;;;;;;;30.13;28.00;;;25.50;99.90;;;;;;4940292;29;20118;-93
2023/10/29 10:39:22;;;;;;;29.40;27.35;;;25.20;99.90;;;;;;4954634;29;20024;-93
2023/10/29 10:41:53;;;;;;;30.27;27.77;;;25.10;99.90;;;;;;4908885;29;20035;-93
2023/10/29 10:44:22;;;;;;;30.27;27.55;;;25.00;99.90;;;;;;4937188;23;20087;-93
2023/10/29 10:47:28;;;;;;;29.60;27.20;;;24.90;99.90;;;;;;4929289;29;20031;-93
2023/10/29 10:50:09;;;;;;;29.50;27.50;;;24.90;99.90;;;;;;4908804;29;20110;-90
2023/10/29 10:52:35;;;;;;;29.27;27.13;;;25.00;99.90;;;;;;4926308;29;20094;-92
2023/10/29 10:55:10;;;;;;;30.30;28.13;;;25.00;99.90;;;;;;4927626;29;20110;-92
2023/10/29 10:57:38;;;;;;;30.17;27.92;;;25.00;99.90;;;;;;4926510;29;20401;-87
2023/10/29 11:00:05;;;;;;;28.90;27.08;;;25.00;99.90;;;;;;4940449;29;20024;-90
2023/10/29 11:02:38;;;;;;;29.80;27.52;;;24.90;99.90;;;;;;4938846;29;20027;-88
2023/10/29 11:05:07;;;;;;;30.25;27.65;;;24.80;99.90;;;;;;4923532;29;20039;-88
2023/10/29 11:07:35;;;;;;;29.65;27.67;;;24.70;99.90;;;;;;4920591;29;20397;-88
2023/10/29 11:10:04;;;;;;;30.05;28.00;;;24.60;99.90;;;;;;4904744;29;20027;-87
2023/10/29 11:12:38;;;;;;;29.98;27.88;;;24.60;99.90;;;;;;4920695;29;20032;-89
2023/10/29 11:15:19;;;;;;;30.55;28.45;;;24.70;99.90;;;;;;4904627;29;20043;-88
2023/10/29 11:18:02;;;;;;;31.23;28.73;;;24.80;99.90;;;;;;4935919;29;20063;-89
2023/10/29 11:20:46;;;;;;;31.65;29.23;;;24.90;99.90;;;;;;4904419;29;20028;-90
2023/10/29 11:23:13;;;;;;;;;;;25.10;99.90;;;;;;4936515;29;20035;-89
2023/10/29 11:25:41;;;;;;;32.20;29.90;;;25.20;99.90;;;;;;4920192;29;19970;-88
2023/10/29 11:28:37;;;;;;;31.85;29.35;;;25.30;99.90;;;;;;4920112;29;20032;-89
2023/10/29 11:31:24;;;;;;;31.90;29.58;;;25.30;99.90;;;;;;4896408;29;20036;-88
2023/10/29 11:33:58;;;;;;;31.38;29.38;;;25.40;99.90;;;;;;4904455;29;20042;-89
2023/10/29 11:36:42;;;;;;;32.97;30.48;;;25.50;99.90;;;;;;4936672;29;20032;-87
2023/10/29 11:39:15;;;;;;;31.45;29.30;;;25.40;99.90;;;;;;4923124;29;20035;-88
2023/10/29 11:41:43;;;;;;;31.00;28.98;;;25.50;99.90;;;;;;4923138;29;20383;-89
2023/10/29 11:44:18;;;;;;;31.52;29.02;;;25.50;99.90;;;;;;4922660;29;20070;-88
2023/10/29 11:47:03;;;;;;;31.63;29.13;;;25.70;99.90;;;;;;4922848;29;20110;-86
2023/10/29 11:49:50;;;;;;;30.45;28.15;;;25.60;99.90;;;;;;4923169;29;20556;-88
2023/10/29 11:52:17;;;;;;;31.02;28.83;;;25.60;99.90;;;;;;4922448;29;20041;-90
2023/10/29 11:54:44;;;;;;;31.52;29.10;;;25.70;99.90;;;;;;4923175;29;20023;-90
2023/10/29 11:57:13;;;;;;;31.10;29.10;;;25.60;99.90;;;;;;4923217;29;20035;-88
2023/10/29 11:59:54;;;;;;;31.45;29.17;;;25.50;99.90;;;;;;4922718;29;20031;-88
2023/10/29 12:02:24;;;;;;;31.70;29.45;;;25.50;99.90;;;;;;4923796;29;20027;-89
2023/10/29 12:04:53;;;;;;;31.95;29.67;;;25.30;99.90;;;;;;4923590;29;20054;-89
2023/10/29 12:07:29;;;;;;;32.25;29.90;;;25.40;99.90;;;;;;4923500;29;20034;-89
2023/10/29 12:10:11;;;;;;;32.15;29.63;;;25.60;99.90;;;;;;4923017;29;20485;-89
2023/10/29 12:12:38;;;;;;;31.50;29.08;;;25.60;99.90;;;;;;4917496;29;20031;-89
2023/10/29 12:15:07;;;;;;;30.30;28.20;;;25.40;99.90;;;;;;4921995;29;20027;-89
2023/10/29 12:17:42;;;;;;;30.20;28.10;;;25.40;99.90;;;;;;4923330;29;20400;-89
2023/10/29 12:20:21;;;;;;;30.48;28.48;;;25.50;99.90;;;;;;4915529;29;20614;-88
2023/10/29 12:22:54;;;;;;;30.55;28.55;;;25.50;99.90;;;;;;4920754;29;20024;-87
2023/10/29 12:25:21;;;;;;;31.33;29.00;;;25.60;99.90;;;;;;4919765;29;20052;-90
2023/10/29 12:27:49;;;;;;;31.83;29.30;;;25.60;99.90;;;;;;4919647;29;20024;-89
2023/10/29 12:30:35;;;;;;;31.05;28.95;;;25.50;99.90;;;;;;4919664;29;20032;-87
2023/10/29 12:33:33;;;;;;;30.73;28.58;;;25.70;99.90;;;;;;4905608;29;20126;-91
2023/10/29 12:36:03;;;;;;;32.00;29.65;;;25.70;99.90;;;;;;4923209;29;20089;-90
2023/10/29 12:38:30;;;;;;;31.55;29.55;;;25.60;99.90;;;;;;4924194;29;20459;-90
2023/10/29 12:41:08;;;;;;;31.90;29.80;;;25.60;99.90;;;;;;4907800;29;20096;-86
2023/10/29 12:43:52;;;;;;;31.52;29.35;;;25.50;99.90;;;;;;4922458;29;20027;-87